createdAt,value
2022-10-04T00:01:53.471Z,100.00
2022-10-04T00:04:44.579Z,100.00
2022-10-04T00:07:14.144Z,100.00
2022-10-04T00:10:04.157Z,100.00
2022-10-04T00:12:35.284Z,100.00
2022-10-04T00:15:17.595Z,100.00
2022-10-04T00:17:44.407Z,100.00
2022-10-04T00:20:49.876Z,100.00
2022-10-04T00:23:25.541Z,100.00
2022-10-04T00:25:55.956Z,100.00
2022-10-04T00:28:25.710Z,100.00
2022-10-04T00:31:15.964Z,100.00
2022-10-04T00:33:42.583Z,100.00
2022-10-04T00:36:24.324Z,100.00
2022-10-04T00:39:08.947Z,100.00
2022-10-04T00:41:47.355Z,100.00
2022-10-04T00:44:45.796Z,100.00
2022-10-04T00:47:31.939Z,100.00
2022-10-04T00:50:17.699Z,100.00
2022-10-04T00:52:51.053Z,100.00
2022-10-04T00:55:33.254Z,100.00
2022-10-04T00:58:03.069Z,100.00
2022-10-04T01:00:33.617Z,100.00
2022-10-04T01:03:14.983Z,100.00
2022-10-04T01:05:47.926Z,100.00
2022-10-04T01:08:35.860Z,100.00
2022-10-04T01:11:16.988Z,100.00
2022-10-04T01:13:51.902Z,100.00
2022-10-04T01:16:19.853Z,100.00
2022-10-04T01:18:47.664Z,100.00
2022-10-04T01:21:23.407Z,100.00
2022-10-04T01:23:52.347Z,100.00
2022-10-04T01:26:32.457Z,100.00
2022-10-04T01:29:02.314Z,100.00
2022-10-04T01:31:31.395Z,100.00
2022-10-04T01:34:00.341Z,100.00
2022-10-04T01:36:27.894Z,100.00
2022-10-04T01:38:55.579Z,100.00
2022-10-04T01:41:29.345Z,100.00
2022-10-04T01:44:01.102Z,100.00
2022-10-04T01:46:36.301Z,100.00
2022-10-04T01:49:12.704Z,100.00
2022-10-04T01:51:50.000Z,100.00
2022-10-04T01:54:21.673Z,100.00
2022-10-04T01:56:51.757Z,100.00
2022-10-04T01:59:26.695Z,100.00
2022-10-04T02:02:00.344Z,100.00
2022-10-04T02:04:38.933Z,100.00
2022-10-04T02:07:13.847Z,100.00
2022-10-04T02:09:43.684Z,100.00
2022-10-04T02:12:16.392Z,100.00
2022-10-04T02:14:53.241Z,100.00
2022-10-04T02:17:28.583Z,100.00
2022-10-04T02:19:56.974Z,100.00
2022-10-04T02:22:25.230Z,100.00
2022-10-04T02:24:54.902Z,100.00
2022-10-04T02:27:27.618Z,100.00
2022-10-04T02:30:08.175Z,100.00
2022-10-04T02:32:54.819Z,100.00
2022-10-04T02:35:21.675Z,100.00
2022-10-04T02:38:05.474Z,100.00
2022-10-04T02:40:40.961Z,100.00
2022-10-04T02:43:15.807Z,100.00
2022-10-04T02:45:49.658Z,100.00
2022-10-04T02:48:40.386Z,100.00
2022-10-04T02:51:14.487Z,100.00
2022-10-04T02:54:03.318Z,100.00
2022-10-04T02:56:32.462Z,100.00
2022-10-04T02:59:04.673Z,100.00
2022-10-04T03:01:49.874Z,100.00
2022-10-04T03:04:16.729Z,100.00
2022-10-04T03:06:46.046Z,100.00
2022-10-04T03:09:14.574Z,100.00
2022-10-04T03:11:42.530Z,100.00
2022-10-04T03:14:25.404Z,100.00
2022-10-04T03:16:55.126Z,100.00
2022-10-04T03:19:23.962Z,100.00
2022-10-04T03:21:54.519Z,100.00
2022-10-04T03:24:25.999Z,100.00
2022-10-04T03:26:56.036Z,100.00
2022-10-04T03:29:25.062Z,100.00
2022-10-04T03:31:57.569Z,100.00
2022-10-04T03:34:39.256Z,100.00
2022-10-04T03:37:16.343Z,100.00
2022-10-04T03:39:52.425Z,100.00
2022-10-04T03:42:23.046Z,100.00
2022-10-04T03:44:52.357Z,100.00
2022-10-04T03:47:27.796Z,100.00
2022-10-04T03:49:58.384Z,100.00
2022-10-04T03:52:29.603Z,100.00
2022-10-04T03:55:00.326Z,100.00
2022-10-04T03:57:27.307Z,100.00
2022-10-04T03:59:54.309Z,100.00
2022-10-04T04:02:26.547Z,100.00
2022-10-04T04:05:21.103Z,100.00
2022-10-04T04:07:58.102Z,100.00
2022-10-04T04:10:29.130Z,100.00
2022-10-04T04:13:11.119Z,100.00
2022-10-04T04:15:40.615Z,100.00
2022-10-04T04:18:15.078Z,100.00
2022-10-04T04:20:43.770Z,100.00
2022-10-04T04:23:25.254Z,100.00
2022-10-04T04:25:55.722Z,100.00
2022-10-04T04:28:41.545Z,100.00
2022-10-04T04:31:32.907Z,100.00
2022-10-04T04:34:02.410Z,100.00
2022-10-04T04:36:31.939Z,100.00
2022-10-04T04:39:33.061Z,100.00
2022-10-04T04:42:02.171Z,100.00
2022-10-04T04:44:29.764Z,100.00
2022-10-04T04:47:00.354Z,100.00
2022-10-04T04:49:31.547Z,100.00
2022-10-04T04:51:58.389Z,100.00
2022-10-04T04:54:27.380Z,100.00
2022-10-04T04:56:56.135Z,100.00
2022-10-04T04:59:24.751Z,100.00
2022-10-04T05:01:51.413Z,100.00
2022-10-04T05:04:24.026Z,100.00
2022-10-04T05:07:15.596Z,100.00
2022-10-04T05:09:42.138Z,100.00
2022-10-04T05:12:17.112Z,100.00
2022-10-04T05:14:52.233Z,100.00
2022-10-04T05:17:23.000Z,100.00
2022-10-04T05:19:50.610Z,100.00
2022-10-04T05:22:22.937Z,100.00
2022-10-04T05:24:54.123Z,100.00
2022-10-04T05:27:30.850Z,100.00
2022-10-04T05:30:36.402Z,100.00
2022-10-04T05:33:08.306Z,100.00
2022-10-04T05:35:57.021Z,100.00
2022-10-04T05:38:27.823Z,100.00
2022-10-04T05:41:00.668Z,100.00
2022-10-04T05:43:35.341Z,100.00
2022-10-04T05:46:20.276Z,100.00
2022-10-04T05:48:52.921Z,100.00
2022-10-04T05:51:25.523Z,100.00
2022-10-04T05:53:52.765Z,100.00
2022-10-04T05:56:40.563Z,100.00
2022-10-04T05:59:19.238Z,100.00
2022-10-04T06:02:00.466Z,100.00
2022-10-04T06:05:00.709Z,99.30
2022-10-04T06:07:34.648Z,99.59
2022-10-04T06:10:10.334Z,100.00
2022-10-04T06:12:44.616Z,100.00
2022-10-04T06:15:21.166Z,99.82
2022-10-04T06:17:55.553Z,100.00
2022-10-04T06:20:52.908Z,100.00
2022-10-04T06:23:21.256Z,99.15
2022-10-04T06:25:53.865Z,97.75
2022-10-04T06:28:31.160Z,97.77
2022-10-04T06:31:24.477Z,97.88
2022-10-04T06:34:12.927Z,97.74
2022-10-04T06:36:57.299Z,97.40
2022-10-04T06:40:12.637Z,94.83
2022-10-04T06:43:09.752Z,94.62
2022-10-04T06:45:54.985Z,95.52
2022-10-04T06:48:33.639Z,95.45
2022-10-04T06:51:17.240Z,94.52
2022-10-04T06:53:49.655Z,93.72
2022-10-04T06:56:57.836Z,91.00
2022-10-04T06:59:52.703Z,91.49
2022-10-04T07:02:26.700Z,90.93
2022-10-04T07:05:08.073Z,90.92
2022-10-04T07:07:38.721Z,91.25
2022-10-04T07:10:32.907Z,90.45
2022-10-04T07:13:20.667Z,88.53
2022-10-04T07:15:55.664Z,87.36
2022-10-04T07:18:37.748Z,85.86
2022-10-04T07:21:11.000Z,84.57
2022-10-04T07:24:01.850Z,83.48
2022-10-04T07:26:44.120Z,82.81
2022-10-04T07:29:29.750Z,83.73
2022-10-04T07:32:05.706Z,83.07
2022-10-04T07:34:53.188Z,83.47
2022-10-04T07:37:21.574Z,84.02
2022-10-04T07:39:57.204Z,83.55
2022-10-04T07:42:46.038Z,82.95
2022-10-04T07:45:20.906Z,82.49
2022-10-04T07:47:47.521Z,82.41
2022-10-04T07:50:22.353Z,83.11
2022-10-04T07:52:48.944Z,83.32
2022-10-04T07:55:25.889Z,84.11
2022-10-04T07:58:26.619Z,84.17
2022-10-04T08:01:04.444Z,82.97
2022-10-04T08:03:58.431Z,82.80
2022-10-04T08:06:46.488Z,83.81
2022-10-04T08:09:36.636Z,84.75
2022-10-04T08:12:26.337Z,85.21
2022-10-04T08:15:13.819Z,86.30
2022-10-04T08:17:48.488Z,86.95
2022-10-04T08:20:43.782Z,88.13
2022-10-04T08:23:37.805Z,91.06
2022-10-04T08:26:27.353Z,92.24
2022-10-04T08:29:43.358Z,95.68
2022-10-04T08:32:28.273Z,100.00
2022-10-04T08:35:16.503Z,100.00
2022-10-04T08:38:08.979Z,100.00
2022-10-04T08:41:11.257Z,100.00
2022-10-04T08:43:56.833Z,100.00
2022-10-04T08:47:05.596Z,100.00
2022-10-04T08:49:32.043Z,100.00
2022-10-04T08:52:12.611Z,100.00
2022-10-04T08:55:10.334Z,100.00
2022-10-04T08:58:10.719Z,100.00
2022-10-04T09:01:02.482Z,100.00
2022-10-04T09:04:01.748Z,100.00
2022-10-04T09:06:43.687Z,100.00
2022-10-04T09:09:34.219Z,100.00
2022-10-04T09:12:20.268Z,100.00
2022-10-04T09:15:17.009Z,100.00
2022-10-04T09:18:14.331Z,100.00
2022-10-04T09:21:02.565Z,100.00
2022-10-04T09:23:32.225Z,100.00
2022-10-04T09:26:06.458Z,100.00
2022-10-04T09:29:04.821Z,100.00
2022-10-04T09:31:48.479Z,100.00
2022-10-04T09:34:50.353Z,100.00
2022-10-04T09:37:36.344Z,100.00
2022-10-04T09:40:22.063Z,100.00
2022-10-04T09:43:07.577Z,95.35
2022-10-04T09:45:42.997Z,100.00
2022-10-04T09:48:37.068Z,99.75
2022-10-04T09:51:09.569Z,98.86
2022-10-04T09:53:54.447Z,98.86
2022-10-04T09:56:59.332Z,97.51
2022-10-04T09:59:57.293Z,98.35
2022-10-04T10:02:42.859Z,98.89
2022-10-04T10:05:45.112Z,97.53
2022-10-04T10:08:15.712Z,96.19
2022-10-04T10:11:14.497Z,99.97
2022-10-04T10:13:56.000Z,99.15
2022-10-04T10:16:49.152Z,97.04
2022-10-04T10:19:42.088Z,92.36
2022-10-04T10:22:36.007Z,89.98
2022-10-04T10:25:27.396Z,89.37
2022-10-04T10:28:03.530Z,86.72
2022-10-04T10:30:54.398Z,86.59
2022-10-04T10:33:32.216Z,86.42
2022-10-04T10:36:13.325Z,83.48
2022-10-04T10:38:55.114Z,81.58
2022-10-04T10:41:46.336Z,82.16
2022-10-04T10:44:58.573Z,80.57
2022-10-04T10:47:37.771Z,80.28
2022-10-04T10:50:16.083Z,78.79
2022-10-04T10:53:24.611Z,74.41
2022-10-04T10:56:16.211Z,77.70
2022-10-04T10:59:18.111Z,74.57
2022-10-04T11:02:04.853Z,78.19
2022-10-04T11:04:38.280Z,74.85
2022-10-04T11:07:32.071Z,75.41
2022-10-04T11:10:10.887Z,73.82
2022-10-04T11:12:56.018Z,73.72
2022-10-04T11:15:55.594Z,73.10
2022-10-04T11:18:25.266Z,72.21
2022-10-04T11:21:21.815Z,74.58
2022-10-04T11:24:26.107Z,72.81
2022-10-04T11:27:05.357Z,70.28
2022-10-04T11:29:32.045Z,73.84
2022-10-04T11:32:01.362Z,72.75
2022-10-04T11:34:35.678Z,73.78
2022-10-04T11:37:15.345Z,72.63
2022-10-04T11:40:00.375Z,71.22
2022-10-04T11:42:42.074Z,71.64
2022-10-04T11:45:38.285Z,70.24
2022-10-04T11:48:19.728Z,70.76
2022-10-04T11:51:18.598Z,70.76
2022-10-04T11:54:04.365Z,69.78
2022-10-04T11:57:09.283Z,70.63
2022-10-04T12:00:00.133Z,69.75
2022-10-04T12:02:32.502Z,68.82
2022-10-04T12:05:12.760Z,67.52
2022-10-04T12:07:57.308Z,68.63
2022-10-04T12:10:23.807Z,67.49
2022-10-04T12:13:04.781Z,68.82
2022-10-04T12:15:36.189Z,67.10
2022-10-04T12:18:26.507Z,67.83
2022-10-04T12:21:09.251Z,68.07
2022-10-04T12:24:00.120Z,66.12
2022-10-04T12:26:55.781Z,65.56
2022-10-04T12:30:13.112Z,66.82
2022-10-04T12:32:58.043Z,65.46
2022-10-04T12:35:27.798Z,64.69
2022-10-04T12:38:08.299Z,64.87
2022-10-04T12:40:43.727Z,62.20
2022-10-04T12:43:37.107Z,60.09
2022-10-04T12:46:25.344Z,60.01
2022-10-04T12:49:13.381Z,62.60
2022-10-04T12:52:20.766Z,61.88
2022-10-04T12:54:51.356Z,60.62
2022-10-04T12:57:44.278Z,61.59
2022-10-04T13:00:19.199Z,62.10
2022-10-04T13:02:48.985Z,61.32
2022-10-04T13:05:46.056Z,62.62
2022-10-04T13:08:47.040Z,60.13
2022-10-04T13:11:52.438Z,62.76
2022-10-04T13:14:33.932Z,64.89
2022-10-04T13:17:34.573Z,64.42
2022-10-04T13:19:56.040Z,64.74
2022-10-04T13:25:45.615Z,64.41
2022-10-04T13:28:24.703Z,64.02
2022-10-04T13:31:13.644Z,63.86
2022-10-04T13:33:50.923Z,63.91
2022-10-04T13:36:20.473Z,63.64
2022-10-04T13:39:28.054Z,63.86
2022-10-04T13:42:12.942Z,64.03
2022-10-04T13:44:59.933Z,62.06
2022-10-04T13:47:32.484Z,61.89
2022-10-04T13:50:41.252Z,63.51
2022-10-04T13:53:44.651Z,62.99
2022-10-04T13:56:32.557Z,63.52
2022-10-04T13:59:17.442Z,64.04
2022-10-04T14:01:55.853Z,63.63
2022-10-04T14:04:43.100Z,63.82
2022-10-04T14:07:34.572Z,65.28
2022-10-04T14:10:17.362Z,65.32
2022-10-04T14:12:49.639Z,66.39
2022-10-04T14:15:53.809Z,68.03
2022-10-04T14:18:48.128Z,69.13
2022-10-04T14:21:53.124Z,70.14
2022-10-04T14:24:42.464Z,71.64
2022-10-04T14:27:21.386Z,71.39
2022-10-04T14:29:50.523Z,71.44
2022-10-04T14:32:52.225Z,70.97
2022-10-04T14:35:30.343Z,71.78
2022-10-04T14:37:57.309Z,72.33
2022-10-04T14:40:39.188Z,72.38
2022-10-04T14:43:45.207Z,72.67
2022-10-04T14:46:51.014Z,70.82
2022-10-04T14:49:51.322Z,69.81
2022-10-04T14:52:39.889Z,69.48
2022-10-04T14:55:29.529Z,68.96
2022-10-04T14:58:02.441Z,67.91
2022-10-04T15:00:47.669Z,68.36
2022-10-04T15:03:30.346Z,68.07
2022-10-04T15:06:09.904Z,67.66
2022-10-04T15:09:08.502Z,67.42
2022-10-04T15:12:21.495Z,68.13
2022-10-04T15:15:02.653Z,68.81
2022-10-04T15:17:38.004Z,68.95
2022-10-04T15:20:20.010Z,69.17
2022-10-04T15:22:55.040Z,68.50
2022-10-04T15:25:42.153Z,68.43
2022-10-04T15:28:52.981Z,69.15
2022-10-04T15:31:37.312Z,69.59
2022-10-04T15:34:49.929Z,70.78
2022-10-04T15:37:34.718Z,70.88
2022-10-04T15:40:24.169Z,71.25
2022-10-04T15:43:32.794Z,72.14
2022-10-04T15:46:09.900Z,71.10
2022-10-04T15:48:51.776Z,71.71
2022-10-04T15:51:59.975Z,71.87
2022-10-04T15:54:47.368Z,73.09
2022-10-04T15:57:32.727Z,73.02
2022-10-04T16:00:13.378Z,73.52
2022-10-04T16:03:13.584Z,74.46
2022-10-04T16:06:01.168Z,74.61
2022-10-04T16:08:27.700Z,74.74
2022-10-04T16:11:12.504Z,76.18
2022-10-04T16:13:55.668Z,76.72
2022-10-04T16:16:42.061Z,78.01
2022-10-04T16:19:30.307Z,76.94
2022-10-04T16:22:17.357Z,77.68
2022-10-04T16:24:50.761Z,77.88
2022-10-04T16:27:37.001Z,79.04
2022-10-04T16:30:27.444Z,79.02
2022-10-04T16:33:13.695Z,78.99
2022-10-04T16:35:46.325Z,80.06
2022-10-04T16:38:12.949Z,80.72
2022-10-04T16:40:51.852Z,81.87
2022-10-04T16:43:18.443Z,82.26
2022-10-04T16:46:13.393Z,83.49
2022-10-04T16:48:49.105Z,84.59
2022-10-04T16:51:18.467Z,85.78
2022-10-04T16:54:11.058Z,85.48
2022-10-04T16:57:03.099Z,85.56
2022-10-04T16:59:38.997Z,86.19
2022-10-04T17:02:41.665Z,86.35
2022-10-04T17:05:25.513Z,86.43
2022-10-04T17:08:21.166Z,87.05
2022-10-04T17:10:48.925Z,88.45
2022-10-04T17:13:25.631Z,89.16
2022-10-04T17:16:13.810Z,89.81
2022-10-04T17:18:49.105Z,90.61
2022-10-04T17:21:43.306Z,91.09
2022-10-04T17:24:34.320Z,91.77
2022-10-04T17:27:26.260Z,92.21
2022-10-04T17:30:01.917Z,92.23
2022-10-04T17:32:51.866Z,92.80
2022-10-04T17:35:44.284Z,93.08
2022-10-04T17:38:26.817Z,93.03
2022-10-04T17:41:02.581Z,92.96
2022-10-04T17:43:44.655Z,93.61
2022-10-04T17:46:20.466Z,94.05
2022-10-04T17:49:13.769Z,94.30
2022-10-04T17:52:09.379Z,94.20
2022-10-04T17:54:57.742Z,95.52
2022-10-04T17:57:34.229Z,94.91
2022-10-04T18:00:10.394Z,95.21
2022-10-04T18:03:01.768Z,96.71
2022-10-04T18:05:47.131Z,97.14
2022-10-04T18:08:32.728Z,97.26
2022-10-04T18:11:06.793Z,96.59
2022-10-04T18:13:33.301Z,96.67
2022-10-04T18:16:31.020Z,96.11
2022-10-04T18:19:22.953Z,95.39
2022-10-04T18:21:52.904Z,95.37
2022-10-04T18:24:21.615Z,94.61
2022-10-04T18:27:05.530Z,95.64
2022-10-04T18:29:39.570Z,98.27
2022-10-04T18:32:25.697Z,98.82
2022-10-04T18:34:57.322Z,100.00
2022-10-04T18:37:37.280Z,100.00
2022-10-04T18:40:41.404Z,100.00
2022-10-04T18:43:29.849Z,100.00
2022-10-04T18:46:15.774Z,100.00
2022-10-04T18:48:52.756Z,100.00
2022-10-04T18:51:31.475Z,100.00
2022-10-04T18:54:21.467Z,100.00
2022-10-04T18:56:51.436Z,100.00
2022-10-04T19:00:11.304Z,100.00
2022-10-04T19:03:00.209Z,100.00
2022-10-04T19:05:51.484Z,100.00
2022-10-04T19:08:29.018Z,100.00
2022-10-04T19:11:09.563Z,100.00
2022-10-04T19:13:47.010Z,100.00
2022-10-04T19:16:36.273Z,100.00
2022-10-04T19:19:06.034Z,100.00
2022-10-04T19:21:54.994Z,100.00
2022-10-04T19:25:15.732Z,100.00
2022-10-04T19:28:00.636Z,100.00
2022-10-04T19:30:42.293Z,100.00
2022-10-04T19:33:20.664Z,100.00
2022-10-04T19:36:22.320Z,100.00
2022-10-04T19:38:58.206Z,100.00
2022-10-04T19:42:04.403Z,100.00
2022-10-04T19:44:52.103Z,100.00
2022-10-04T19:48:00.386Z,100.00
2022-10-04T19:51:08.560Z,100.00
2022-10-04T19:53:42.534Z,100.00
2022-10-04T19:56:20.745Z,100.00
2022-10-04T19:59:21.720Z,100.00
2022-10-04T20:01:50.057Z,100.00
2022-10-04T20:04:35.844Z,100.00
2022-10-04T20:07:05.371Z,100.00
2022-10-04T20:09:37.924Z,100.00
2022-10-04T20:12:05.543Z,100.00
2022-10-04T20:14:32.238Z,100.00
2022-10-04T20:17:00.789Z,100.00
2022-10-04T20:19:27.327Z,100.00
2022-10-04T20:21:54.976Z,100.00
2022-10-04T20:24:47.701Z,100.00
2022-10-04T20:27:23.481Z,100.00
2022-10-04T20:29:51.676Z,100.00
2022-10-04T20:32:27.497Z,100.00
2022-10-04T20:34:58.390Z,100.00
2022-10-04T20:37:43.680Z,100.00
2022-10-04T20:40:30.330Z,100.00
2022-10-04T20:43:15.298Z,100.00
2022-10-04T20:45:46.231Z,100.00
2022-10-04T20:48:24.029Z,100.00
2022-10-04T20:50:52.516Z,100.00
2022-10-04T20:53:28.371Z,100.00
2022-10-04T20:56:11.816Z,100.00
2022-10-04T20:58:40.392Z,100.00
2022-10-04T21:01:29.794Z,100.00
2022-10-04T21:04:32.643Z,100.00
2022-10-04T21:06:59.883Z,100.00
2022-10-04T21:09:27.866Z,100.00
2022-10-04T21:11:56.304Z,100.00
2022-10-04T21:14:37.174Z,100.00
2022-10-04T21:17:29.275Z,100.00
2022-10-04T21:19:55.946Z,100.00
2022-10-04T21:22:31.211Z,100.00
2022-10-04T21:25:04.006Z,100.00
2022-10-04T21:27:38.732Z,100.00
2022-10-04T21:30:14.331Z,100.00
2022-10-04T21:32:41.093Z,100.00
2022-10-04T21:35:08.917Z,100.00
2022-10-04T21:37:35.935Z,100.00
2022-10-04T21:40:03.632Z,100.00
2022-10-04T21:42:30.187Z,100.00
2022-10-04T21:44:56.855Z,100.00
2022-10-04T21:47:23.603Z,100.00
2022-10-04T21:49:51.801Z,100.00
2022-10-04T21:52:18.549Z,100.00
2022-10-04T21:54:45.601Z,100.00
2022-10-04T21:57:13.052Z,100.00
2022-10-04T21:59:39.577Z,100.00
2022-10-04T22:02:07.833Z,100.00
2022-10-04T22:04:34.543Z,100.00
2022-10-04T22:07:01.260Z,100.00
2022-10-04T22:09:28.013Z,100.00
2022-10-04T22:11:54.512Z,100.00
2022-10-04T22:14:21.037Z,100.00
2022-10-04T22:16:47.987Z,100.00
2022-10-04T22:19:14.716Z,100.00
2022-10-04T22:21:41.236Z,100.00
2022-10-04T22:24:17.269Z,100.00
2022-10-04T22:26:44.305Z,100.00
2022-10-04T22:29:16.454Z,100.00
2022-10-04T22:31:49.335Z,100.00
2022-10-04T22:34:19.178Z,100.00
2022-10-04T22:36:48.338Z,100.00
2022-10-04T22:39:20.290Z,100.00
2022-10-04T22:41:53.322Z,100.00
2022-10-04T22:44:22.619Z,100.00
2022-10-04T22:46:54.980Z,100.00
2022-10-04T22:49:24.381Z,100.00
2022-10-04T22:51:53.282Z,100.00
2022-10-04T22:54:24.013Z,100.00
2022-10-04T22:56:51.855Z,100.00
2022-10-04T22:59:20.897Z,100.00
2022-10-04T23:01:48.500Z,100.00
2022-10-04T23:04:23.692Z,100.00
2022-10-04T23:06:51.277Z,100.00
2022-10-04T23:09:18.335Z,100.00
2022-10-04T23:11:45.093Z,100.00
2022-10-04T23:14:12.034Z,100.00
2022-10-04T23:16:43.022Z,100.00
2022-10-04T23:19:13.650Z,100.00
2022-10-04T23:21:43.803Z,100.00
2022-10-04T23:24:17.637Z,100.00
2022-10-04T23:26:52.697Z,100.00
2022-10-04T23:29:30.038Z,100.00
2022-10-04T23:31:57.617Z,100.00
2022-10-04T23:34:33.178Z,100.00
2022-10-04T23:37:00.064Z,100.00
2022-10-04T23:39:36.310Z,100.00
2022-10-04T23:42:13.473Z,100.00
2022-10-04T23:44:40.112Z,100.00
2022-10-04T23:47:15.987Z,100.00
2022-10-04T23:49:43.100Z,100.00
2022-10-04T23:52:18.801Z,100.00
2022-10-04T23:54:45.704Z,100.00
2022-10-04T23:57:21.441Z,100.00
2022-10-04T23:59:48.921Z,100.00
